createdAt,value
2018-12-31T08:23:12.759Z,4.00
2018-12-31T08:25:42.894Z,4.10
2018-12-31T08:28:14.887Z,4.10
2018-12-31T08:30:47.023Z,4.10
2018-12-31T08:33:17.107Z,4.10
2018-12-31T08:35:47.200Z,4.10
2018-12-31T08:38:18.260Z,4.20
2018-12-31T08:40:48.807Z,4.20
2018-12-31T08:43:18.887Z,4.20
2018-12-31T08:45:51.776Z,4.20
2018-12-31T08:48:22.788Z,4.20
2018-12-31T08:50:52.937Z,4.20
2018-12-31T08:53:23.019Z,4.20
2018-12-31T08:56:03.964Z,4.20
2018-12-31T08:58:37.008Z,4.20
2018-12-31T09:01:16.408Z,4.20
2018-12-31T09:03:49.900Z,4.20
2018-12-31T09:06:21.903Z,4.30
2018-12-31T09:08:51.990Z,4.30
2018-12-31T09:11:26.736Z,4.30
2018-12-31T09:14:00.384Z,4.30
2018-12-31T09:16:32.124Z,4.30
2018-12-31T09:19:02.229Z,4.30
2018-12-31T09:21:32.303Z,4.30
2018-12-31T09:24:03.380Z,4.30
2018-12-31T09:26:33.468Z,4.30
2018-12-31T09:29:04.588Z,4.40
2018-12-31T09:31:42.667Z,4.40
2018-12-31T09:34:12.756Z,4.50
2018-12-31T09:36:44.824Z,4.50
2018-12-31T09:39:17.088Z,4.60
2018-12-31T09:41:48.064Z,4.60
2018-12-31T09:44:18.132Z,4.60
2018-12-31T09:46:54.063Z,4.60
2018-12-31T09:49:26.175Z,4.60
2018-12-31T09:51:56.259Z,4.60
2018-12-31T09:54:26.341Z,4.60
2018-12-31T09:56:58.288Z,4.70
2018-12-31T09:59:28.369Z,4.60
2018-12-31T10:01:58.764Z,4.60
2018-12-31T10:04:29.725Z,4.60
2018-12-31T10:07:00.864Z,4.60
2018-12-31T10:09:30.972Z,4.60
2018-12-31T10:12:09.835Z,4.60
2018-12-31T10:14:45.808Z,4.60
2018-12-31T10:17:16.829Z,4.60
2018-12-31T10:19:48.893Z,4.50
2018-12-31T10:22:19.022Z,4.60
2018-12-31T10:24:49.104Z,4.60
2018-12-31T10:27:19.186Z,4.60
2018-12-31T10:29:55.147Z,4.60
2018-12-31T10:32:25.263Z,4.60
2018-12-31T10:34:55.344Z,4.60
2018-12-31T10:37:26.892Z,4.60
2018-12-31T10:39:56.969Z,4.60
2018-12-31T10:42:32.904Z,4.60
2018-12-31T10:45:04.143Z,4.70
2018-12-31T10:47:34.256Z,4.70
2018-12-31T10:50:05.114Z,4.70
2018-12-31T10:52:35.175Z,4.70
2018-12-31T10:55:05.996Z,4.70
2018-12-31T10:57:38.056Z,4.70
2018-12-31T11:00:08.624Z,4.70
2018-12-31T11:02:39.596Z,4.80
2018-12-31T11:05:09.843Z,4.70
2018-12-31T11:07:39.944Z,4.80
2018-12-31T11:10:10.116Z,4.80
2018-12-31T11:12:40.210Z,4.90
2018-12-31T11:15:17.399Z,4.90
2018-12-31T11:17:47.508Z,4.80
2018-12-31T11:20:17.586Z,4.80
2018-12-31T11:22:47.755Z,4.90
2018-12-31T11:25:18.880Z,4.90
2018-12-31T11:27:49.000Z,4.90
2018-12-31T11:30:19.975Z,4.80
2018-12-31T11:32:50.125Z,4.80
2018-12-31T11:35:21.164Z,4.80
2018-12-31T11:37:51.257Z,4.80
2018-12-31T11:40:24.308Z,4.80
2018-12-31T11:42:59.350Z,4.90
2018-12-31T11:45:37.191Z,5.00
2018-12-31T11:48:08.161Z,5.00
2018-12-31T11:50:38.236Z,5.00
2018-12-31T11:53:09.297Z,5.10
2018-12-31T11:55:39.392Z,5.20
2018-12-31T11:58:09.495Z,5.20
2018-12-31T12:00:40.548Z,5.30
2018-12-31T12:03:10.626Z,5.30
2018-12-31T12:05:42.612Z,5.20
2018-12-31T12:08:12.688Z,5.30
2018-12-31T12:10:43.685Z,5.30
2018-12-31T12:13:13.779Z,5.30
2018-12-31T12:15:44.238Z,5.30
2018-12-31T12:18:14.324Z,5.30
2018-12-31T12:20:48.349Z,5.30
2018-12-31T12:23:21.000Z,5.40
2018-12-31T12:25:52.113Z,5.50
2018-12-31T12:28:24.049Z,5.40
2018-12-31T12:31:01.436Z,5.40
2018-12-31T12:33:31.529Z,5.30
2018-12-31T12:36:02.506Z,5.30
2018-12-31T12:38:32.589Z,5.30
2018-12-31T12:41:02.720Z,5.30
2018-12-31T12:43:38.913Z,5.40
2018-12-31T12:46:21.798Z,5.40
2018-12-31T12:48:51.891Z,5.50
2018-12-31T12:51:21.981Z,5.50
2018-12-31T12:53:52.061Z,5.60
2018-12-31T12:56:23.837Z,5.60
2018-12-31T12:58:53.993Z,5.70
2018-12-31T13:01:26.093Z,5.70
2018-12-31T13:03:56.168Z,5.70
2018-12-31T13:06:29.524Z,5.80
2018-12-31T13:09:00.488Z,5.80
2018-12-31T13:11:30.564Z,5.70
2018-12-31T13:14:01.549Z,5.60
2018-12-31T13:16:31.651Z,5.60
2018-12-31T13:19:03.628Z,5.50
2018-12-31T13:21:35.599Z,5.50
2018-12-31T13:24:05.671Z,5.50
2018-12-31T13:26:43.494Z,5.50
2018-12-31T13:29:11.441Z,5.50
2018-12-31T13:31:41.536Z,5.50
2018-12-31T13:34:12.597Z,5.40
2018-12-31T13:36:43.640Z,5.40
2018-12-31T13:39:13.986Z,5.50
2018-12-31T13:41:44.065Z,5.50
2018-12-31T13:44:20.237Z,5.50
2018-12-31T13:46:50.320Z,5.50
2018-12-31T13:49:20.961Z,5.40
2018-12-31T13:51:51.061Z,5.40
2018-12-31T13:54:25.308Z,5.40
2018-12-31T13:56:55.380Z,5.40
2018-12-31T13:59:26.391Z,5.40
2018-12-31T14:01:56.468Z,5.50
2018-12-31T14:04:26.554Z,5.50
2018-12-31T14:06:58.579Z,5.50
2018-12-31T14:09:30.546Z,5.50
2018-12-31T14:12:09.625Z,5.50
2018-12-31T14:14:40.608Z,5.50
2018-12-31T14:17:11.593Z,5.60
2018-12-31T14:19:44.980Z,5.50
2018-12-31T14:22:15.055Z,5.50
2018-12-31T14:24:45.132Z,5.50
2018-12-31T14:27:15.229Z,5.50
2018-12-31T14:29:45.381Z,5.50
2018-12-31T14:32:15.845Z,5.50
2018-12-31T14:34:45.994Z,5.50
2018-12-31T14:37:26.498Z,5.60
2018-12-31T14:39:56.597Z,5.60
2018-12-31T14:42:26.891Z,5.50
2018-12-31T14:44:56.996Z,5.50
2018-12-31T14:47:33.045Z,5.50
2018-12-31T14:50:03.122Z,5.50
2018-12-31T14:52:34.705Z,5.50
2018-12-31T14:55:10.454Z,5.50
2018-12-31T14:57:41.487Z,5.50
2018-12-31T15:00:13.629Z,5.50
2018-12-31T15:02:44.986Z,5.60
2018-12-31T15:05:15.061Z,5.60
2018-12-31T15:07:52.331Z,5.60
2018-12-31T15:10:28.605Z,5.60
2018-12-31T15:13:00.585Z,5.60
2018-12-31T15:15:30.665Z,5.60
2018-12-31T15:18:02.657Z,5.60
2018-12-31T15:20:33.042Z,5.60
2018-12-31T15:23:03.369Z,5.60
2018-12-31T15:25:36.601Z,5.60
2018-12-31T15:28:06.685Z,5.60
2018-12-31T15:30:36.774Z,5.60
2018-12-31T15:33:06.844Z,5.60
2018-12-31T15:35:45.862Z,5.60
2018-12-31T15:38:19.041Z,5.60
2018-12-31T15:40:49.190Z,5.60
2018-12-31T15:43:20.349Z,5.60
2018-12-31T15:45:52.366Z,5.60
2018-12-31T15:48:22.453Z,5.60
2018-12-31T15:50:52.954Z,5.60
2018-12-31T15:53:24.601Z,5.60
2018-12-31T15:55:54.690Z,5.60
2018-12-31T15:58:25.655Z,5.60
2018-12-31T16:00:55.766Z,5.60
2018-12-31T16:03:27.862Z,5.60
2018-12-31T16:05:58.126Z,5.60
2018-12-31T16:08:30.190Z,5.60
2018-12-31T16:11:09.053Z,5.60
2018-12-31T16:13:39.132Z,5.60
2018-12-31T16:16:09.510Z,5.60
2018-12-31T16:18:41.750Z,5.60
2018-12-31T16:21:12.753Z,5.60
2018-12-31T16:23:48.613Z,5.60
2018-12-31T16:26:20.063Z,5.60
2018-12-31T16:28:52.117Z,5.60
2018-12-31T16:31:30.401Z,5.60
2018-12-31T16:34:02.381Z,5.60
2018-12-31T16:36:32.509Z,5.60
2018-12-31T16:39:02.645Z,5.60
2018-12-31T16:41:32.860Z,5.60
2018-12-31T16:44:02.979Z,5.60
2018-12-31T16:46:33.082Z,5.60
2018-12-31T16:49:03.151Z,5.60
2018-12-31T16:51:39.062Z,5.60
2018-12-31T16:54:10.037Z,5.60
2018-12-31T16:56:40.117Z,5.60
2018-12-31T16:59:10.268Z,5.60
2018-12-31T17:01:41.905Z,5.60
2018-12-31T17:04:11.989Z,5.60
2018-12-31T17:06:42.081Z,5.60
2018-12-31T17:09:12.165Z,5.60
2018-12-31T17:11:54.666Z,5.60
2018-12-31T17:14:24.757Z,5.60
2018-12-31T17:17:02.002Z,5.60
2018-12-31T17:19:34.164Z,5.60
2018-12-31T17:22:05.186Z,5.60
2018-12-31T17:24:37.165Z,5.60
2018-12-31T17:27:07.237Z,5.60
2018-12-31T17:29:44.658Z,5.60
2018-12-31T17:32:18.829Z,5.60
2018-12-31T17:34:49.859Z,5.60
2018-12-31T17:37:20.051Z,5.60
2018-12-31T17:40:02.386Z,5.60
2018-12-31T17:42:32.507Z,5.60
2018-12-31T17:45:02.598Z,5.60
2018-12-31T17:47:32.677Z,5.60
2018-12-31T17:50:03.046Z,5.60
2018-12-31T17:52:34.011Z,5.60
2018-12-31T17:55:04.398Z,5.60
2018-12-31T17:57:34.490Z,5.60
2018-12-31T18:00:07.651Z,5.60
2018-12-31T18:02:43.522Z,5.60
2018-12-31T18:05:13.639Z,5.60
2018-12-31T18:07:49.614Z,5.60
2018-12-31T18:10:20.794Z,5.60
2018-12-31T18:12:51.422Z,5.60
2018-12-31T18:15:27.347Z,5.60
2018-12-31T18:18:00.098Z,5.60
2018-12-31T18:20:30.456Z,5.60
2018-12-31T18:23:00.550Z,5.60
2018-12-31T18:25:31.581Z,5.60
2018-12-31T18:28:02.550Z,5.60
2018-12-31T18:30:32.638Z,5.60
2018-12-31T18:33:02.949Z,5.60
2018-12-31T18:35:41.286Z,5.60
2018-12-31T18:38:12.054Z,5.60
2018-12-31T18:40:42.175Z,5.60
2018-12-31T18:43:12.250Z,5.60
2018-12-31T18:45:49.586Z,5.60
2018-12-31T18:48:22.915Z,5.60
2018-12-31T18:50:56.026Z,5.60
2018-12-31T18:53:26.100Z,5.60
2018-12-31T18:56:00.146Z,5.60
2018-12-31T18:58:33.364Z,5.60
2018-12-31T19:01:03.494Z,5.60
2018-12-31T19:03:33.591Z,5.60
2018-12-31T19:06:03.666Z,5.60
2018-12-31T19:08:33.747Z,5.60
2018-12-31T19:11:03.971Z,5.60
2018-12-31T19:13:40.306Z,5.60
2018-12-31T19:16:11.283Z,5.60
2018-12-31T19:18:41.395Z,5.60
2018-12-31T19:21:11.503Z,5.60
2018-12-31T19:23:41.590Z,5.60
2018-12-31T19:26:11.679Z,5.60
2018-12-31T19:28:41.758Z,5.60
2018-12-31T19:31:11.875Z,5.60
2018-12-31T19:33:41.975Z,5.60
2018-12-31T19:36:14.507Z,5.60
2018-12-31T19:38:46.511Z,5.60
2018-12-31T19:41:17.535Z,5.60
2018-12-31T19:43:50.767Z,5.60
2018-12-31T19:46:26.815Z,5.60
2018-12-31T19:48:59.947Z,5.60
2018-12-31T19:51:32.949Z,5.60
2018-12-31T19:54:03.014Z,5.60
2018-12-31T19:56:44.087Z,5.60
2018-12-31T19:59:16.110Z,5.60
2018-12-31T20:01:51.279Z,5.60
2018-12-31T20:04:24.024Z,5.60
2018-12-31T20:07:01.241Z,5.60
2018-12-31T20:09:27.296Z,5.60
2018-12-31T20:11:57.379Z,5.60
2018-12-31T20:14:33.270Z,5.60
2018-12-31T20:17:03.534Z,5.60
2018-12-31T20:19:36.358Z,5.60
2018-12-31T20:22:06.406Z,5.60
2018-12-31T20:24:43.627Z,5.60
2018-12-31T20:27:24.984Z,5.60
2018-12-31T20:29:56.014Z,5.60
2018-12-31T20:32:26.983Z,5.60
2018-12-31T20:34:58.065Z,5.60
2018-12-31T20:37:29.070Z,5.50
2018-12-31T20:40:01.046Z,5.50
2018-12-31T20:42:32.167Z,5.50
2018-12-31T20:45:02.234Z,5.50
2018-12-31T20:47:32.315Z,5.50
2018-12-31T20:50:16.268Z,5.50
2018-12-31T20:52:48.323Z,5.50
2018-12-31T20:55:19.294Z,5.50
2018-12-31T20:57:50.095Z,5.50
2018-12-31T21:00:27.692Z,5.50
2018-12-31T21:02:57.786Z,5.50
2018-12-31T21:05:47.474Z,5.50
2018-12-31T21:08:18.764Z,5.50
2018-12-31T21:10:49.528Z,5.50
2018-12-31T21:13:21.526Z,5.50
2018-12-31T21:15:51.613Z,5.50
2018-12-31T21:18:23.594Z,5.50
2018-12-31T21:20:54.564Z,5.50
2018-12-31T21:23:25.231Z,5.50
2018-12-31T21:25:55.328Z,5.50
2018-12-31T21:28:26.324Z,5.50
2018-12-31T21:30:57.710Z,5.50
2018-12-31T21:33:27.799Z,5.50
2018-12-31T21:35:58.824Z,5.50
2018-12-31T21:38:28.928Z,5.50
2018-12-31T21:40:58.989Z,5.50
2018-12-31T21:43:33.043Z,5.50
2018-12-31T21:46:03.638Z,5.50
2018-12-31T21:48:33.736Z,5.50
2018-12-31T21:51:04.758Z,5.50
2018-12-31T21:53:38.164Z,5.50
2018-12-31T21:56:22.410Z,5.50
2018-12-31T21:58:52.507Z,5.50
2018-12-31T22:01:22.667Z,5.50
2018-12-31T22:03:53.702Z,5.50
2018-12-31T22:06:24.712Z,5.50
2018-12-31T22:08:54.891Z,5.50
2018-12-31T22:11:24.988Z,5.50
2018-12-31T22:14:03.786Z,5.50
2018-12-31T22:16:35.789Z,5.50
2018-12-31T22:19:05.889Z,5.50
2018-12-31T22:21:39.083Z,5.50
2018-12-31T22:24:13.158Z,5.50
2018-12-31T22:26:43.408Z,5.40
2018-12-31T22:29:19.286Z,5.40
2018-12-31T22:31:57.162Z,5.40
2018-12-31T22:34:30.530Z,5.40
2018-12-31T22:37:02.631Z,5.40
2018-12-31T22:39:34.682Z,5.40
2018-12-31T22:42:12.817Z,5.40
2018-12-31T22:44:44.858Z,5.40
2018-12-31T22:47:18.534Z,5.40
2018-12-31T22:49:54.411Z,5.40
2018-12-31T22:52:30.578Z,5.40
2018-12-31T22:55:00.661Z,5.40
2018-12-31T22:57:32.012Z,5.40
2018-12-31T23:00:02.166Z,5.40
2018-12-31T23:02:32.278Z,5.40
2018-12-31T23:05:04.479Z,5.40
2018-12-31T23:07:35.474Z,5.40
2018-12-31T23:10:16.544Z,5.40
2018-12-31T23:12:54.086Z,5.40
2018-12-31T23:15:26.880Z,5.40
2018-12-31T23:18:00.594Z,5.40
2018-12-31T23:20:34.346Z,5.40
2018-12-31T23:23:06.319Z,5.40
2018-12-31T23:25:37.638Z,5.40
2018-12-31T23:28:14.826Z,5.40
2018-12-31T23:30:44.950Z,5.40
2018-12-31T23:33:16.465Z,5.40
2018-12-31T23:35:46.566Z,5.40
2018-12-31T23:38:18.602Z,5.40
2018-12-31T23:40:53.818Z,5.40
2018-12-31T23:43:24.983Z,5.40
2018-12-31T23:45:57.070Z,5.40
2018-12-31T23:48:28.050Z,5.40
2018-12-31T23:51:01.122Z,5.40
2018-12-31T23:53:31.211Z,5.40
2018-12-31T23:56:01.350Z,5.40
2018-12-31T23:58:38.497Z,5.40
